Terminal Aerodrome Forecast
Issued by NWS

Home | Current Version | Previous Version | Text Only | Print | Product List | Glossary On
Versions: 1 2 3 4 5 6 7 8 9 10 11 12 13 14 15 16 17
611
FTUS43 KDTX 231120
TAFDET
TAF
KDET 231120Z 2312/2412 VRB03KT P6SM SKC
     FM231300 VRB04KT P6SM FEW060
     FM231900 12008KT P6SM FEW060
     FM240100 VRB03KT P6SM SCT250
     FM241000 VRB03KT 5SM BR SCT250=

USA.gov is the U.S. government's official web portal to all federal, state and local government web resources and services.